createdAt,value
2022-10-09T00:01:10.720Z,20.08
2022-10-09T00:03:40.372Z,19.13
2022-10-09T00:06:09.400Z,19.90
2022-10-09T00:08:41.400Z,22.90
2022-10-09T00:11:11.399Z,16.67
2022-10-09T00:13:38.865Z,18.23
2022-10-09T00:16:08.617Z,20.33
2022-10-09T00:18:36.224Z,21.90
2022-10-09T00:21:04.592Z,18.60
2022-10-09T00:23:32.503Z,16.88
2022-10-09T00:26:01.381Z,18.58
2022-10-09T00:28:33.387Z,16.20
2022-10-09T00:31:09.284Z,16.10
2022-10-09T00:33:37.287Z,23.80
2022-10-09T00:36:14.055Z,16.73
2022-10-09T00:38:41.412Z,15.95
2022-10-09T00:41:09.093Z,20.00
2022-10-09T00:43:43.181Z,17.35
2022-10-09T00:46:37.704Z,19.05
2022-10-09T00:49:29.493Z,19.65
2022-10-09T00:52:01.955Z,18.88
2022-10-09T00:54:33.024Z,17.77
2022-10-09T00:57:00.780Z,21.13
2022-10-09T00:59:28.451Z,19.67
2022-10-09T01:01:55.918Z,21.10
2022-10-09T01:04:23.282Z,19.92
2022-10-09T01:07:16.466Z,16.60
2022-10-09T01:10:08.537Z,21.65
2022-10-09T01:12:54.683Z,21.20
2022-10-09T01:15:33.181Z,22.55
2022-10-09T01:18:27.970Z,16.27
2022-10-09T01:21:03.990Z,23.38
2022-10-09T01:23:52.923Z,20.88
2022-10-09T01:26:38.717Z,18.30
2022-10-09T01:29:08.949Z,21.48
2022-10-09T01:31:41.601Z,18.48
2022-10-09T01:34:11.759Z,25.48
2022-10-09T01:36:40.112Z,22.65
2022-10-09T01:39:10.245Z,22.02
2022-10-09T01:41:38.062Z,21.70
2022-10-09T01:44:19.479Z,24.55
2022-10-09T01:46:47.515Z,18.83
2022-10-09T01:49:53.542Z,23.38
2022-10-09T01:52:31.106Z,23.30
2022-10-09T01:55:01.429Z,22.55
2022-10-09T01:57:47.816Z,24.48
2022-10-09T02:00:15.839Z,24.10
2022-10-09T02:02:44.707Z,20.90
2022-10-09T02:05:17.787Z,24.98
2022-10-09T02:07:45.712Z,24.85
2022-10-09T02:10:15.452Z,21.80
2022-10-09T02:12:48.086Z,20.75
2022-10-09T02:15:16.239Z,22.48
2022-10-09T02:17:47.630Z,19.65
2022-10-09T02:20:28.949Z,23.13
2022-10-09T02:22:58.239Z,25.05
2022-10-09T02:25:25.577Z,25.98
2022-10-09T02:27:53.102Z,19.15
2022-10-09T02:30:21.550Z,18.90
2022-10-09T02:32:53.438Z,21.65
2022-10-09T02:35:21.502Z,21.80
2022-10-09T02:37:49.155Z,21.08
2022-10-09T02:40:16.594Z,22.25
2022-10-09T02:42:43.870Z,19.52
2022-10-09T02:45:11.281Z,23.58
2022-10-09T02:47:38.578Z,20.50
2022-10-09T02:50:06.545Z,25.02
2022-10-09T02:52:33.806Z,20.27
2022-10-09T02:55:01.026Z,18.15
2022-10-09T02:57:28.436Z,20.17
2022-10-09T02:59:55.716Z,27.33
2022-10-09T03:02:23.076Z,18.55
2022-10-09T03:04:50.423Z,16.30
2022-10-09T03:07:17.695Z,17.33
2022-10-09T03:09:45.070Z,18.00
2022-10-09T03:12:12.364Z,16.20
2022-10-09T03:14:39.747Z,17.80
2022-10-09T03:17:07.008Z,21.70
2022-10-09T03:19:34.227Z,18.13
2022-10-09T03:22:01.484Z,14.43
2022-10-09T03:24:28.888Z,14.23
2022-10-09T03:26:56.161Z,16.35
2022-10-09T03:29:23.793Z,15.30
2022-10-09T03:31:53.198Z,17.08
2022-10-09T03:34:20.872Z,17.23
2022-10-09T03:36:48.208Z,13.05
2022-10-09T03:39:15.506Z,13.13
2022-10-09T03:41:42.764Z,14.23
2022-10-09T03:44:10.021Z,13.57
2022-10-09T03:46:37.294Z,13.18
2022-10-09T03:49:04.781Z,15.98
2022-10-09T03:51:32.080Z,13.35
2022-10-09T03:53:59.328Z,12.73
2022-10-09T03:56:26.596Z,13.23
2022-10-09T03:58:53.977Z,12.55
2022-10-09T04:01:21.351Z,10.88
2022-10-09T04:03:48.658Z,14.50
2022-10-09T04:06:16.542Z,14.77
2022-10-09T04:08:43.909Z,14.98
2022-10-09T04:11:11.205Z,12.25
2022-10-09T04:13:38.448Z,14.40
2022-10-09T04:16:06.029Z,18.40
2022-10-09T04:18:33.383Z,14.02
2022-10-09T04:21:00.737Z,14.43
2022-10-09T04:23:28.090Z,15.35
2022-10-09T04:25:58.384Z,13.73
2022-10-09T04:28:27.153Z,13.05
2022-10-09T04:30:54.600Z,14.40
2022-10-09T04:33:21.911Z,13.90
2022-10-09T04:35:53.552Z,13.48
2022-10-09T04:38:21.489Z,14.98
2022-10-09T04:41:04.073Z,16.63
2022-10-09T04:43:33.532Z,13.55
2022-10-09T04:46:05.503Z,14.02
2022-10-09T04:48:38.348Z,18.20
2022-10-09T04:51:06.827Z,18.05
2022-10-09T04:53:35.896Z,22.80
2022-10-09T04:56:06.279Z,19.50
2022-10-09T04:58:36.461Z,17.65
2022-10-09T05:01:14.226Z,20.75
2022-10-09T05:03:41.705Z,18.25
2022-10-09T05:06:11.242Z,15.45
2022-10-09T05:08:39.761Z,18.83
2022-10-09T05:11:10.445Z,17.08
2022-10-09T05:13:40.379Z,19.30
2022-10-09T05:16:11.878Z,17.23
2022-10-09T05:18:50.807Z,16.17
2022-10-09T05:21:18.671Z,22.35
2022-10-09T05:23:46.616Z,24.58
2022-10-09T05:26:17.807Z,20.25
2022-10-09T05:28:45.728Z,21.33
2022-10-09T05:31:33.491Z,20.02
2022-10-09T05:34:02.054Z,23.35
2022-10-09T05:36:30.059Z,19.08
2022-10-09T05:38:58.008Z,26.73
2022-10-09T05:41:25.265Z,21.98
2022-10-09T05:43:52.509Z,23.52
2022-10-09T05:46:24.887Z,25.17
2022-10-09T05:48:54.808Z,25.70
2022-10-09T05:51:27.559Z,21.48
2022-10-09T05:53:54.940Z,29.20
2022-10-09T05:56:27.704Z,24.35
2022-10-09T05:59:00.405Z,24.42
2022-10-09T06:01:33.579Z,24.38
2022-10-09T06:06:32.375Z,24.58
2022-10-09T06:08:59.986Z,24.08
2022-10-09T06:11:31.589Z,24.38
2022-10-09T06:14:00.736Z,26.02
2022-10-09T06:16:30.891Z,25.52
2022-10-09T06:18:59.087Z,26.40
2022-10-09T06:21:27.709Z,25.15
2022-10-09T06:23:57.617Z,21.08
2022-10-09T06:26:26.576Z,22.50
2022-10-09T06:28:53.817Z,21.77
2022-10-09T06:31:24.732Z,26.40
2022-10-09T06:33:53.388Z,24.50
2022-10-09T06:36:23.537Z,20.00
2022-10-09T06:38:51.297Z,27.23
2022-10-09T06:41:24.014Z,22.38
2022-10-09T06:43:56.805Z,20.25
2022-10-09T06:46:27.244Z,23.10
2022-10-09T06:48:54.633Z,21.17
2022-10-09T06:51:23.315Z,19.92
2022-10-09T06:53:53.542Z,18.77
2022-10-09T06:56:22.676Z,22.02
2022-10-09T06:58:50.324Z,21.58
2022-10-09T07:01:24.447Z,19.05
2022-10-09T07:03:57.721Z,22.65
2022-10-09T07:08:57.278Z,18.75
2022-10-09T07:11:27.249Z,18.25
2022-10-09T07:13:59.599Z,21.67
2022-10-09T07:16:38.924Z,17.77
2022-10-09T07:19:08.281Z,17.65
2022-10-09T07:21:37.039Z,17.55
2022-10-09T07:24:05.636Z,14.00
2022-10-09T07:26:35.642Z,15.68
2022-10-09T07:29:05.251Z,17.92
2022-10-09T07:31:32.719Z,15.82
2022-10-09T07:34:00.664Z,14.95
2022-10-09T07:36:28.160Z,16.10
2022-10-09T07:38:57.232Z,15.98
2022-10-09T07:41:26.738Z,14.02
2022-10-09T07:43:54.425Z,18.02
2022-10-09T07:46:24.201Z,12.25
2022-10-09T07:48:52.388Z,12.57
2022-10-09T07:51:24.017Z,14.85
2022-10-09T07:53:52.047Z,14.23
2022-10-09T07:56:25.912Z,11.70
2022-10-09T07:58:54.956Z,12.65
2022-10-09T08:01:23.720Z,18.80
2022-10-09T08:03:51.290Z,11.85
2022-10-09T08:06:19.591Z,14.18
2022-10-09T08:08:51.058Z,12.85
2022-10-09T08:11:19.698Z,15.18
2022-10-09T08:13:49.363Z,14.13
2022-10-09T08:16:18.077Z,12.95
2022-10-09T08:18:45.680Z,10.70
2022-10-09T08:21:19.039Z,14.50
2022-10-09T08:23:46.779Z,12.50
2022-10-09T08:26:16.083Z,18.20
2022-10-09T08:28:43.699Z,8.00
2022-10-09T08:31:16.320Z,9.73
2022-10-09T08:33:44.228Z,4.18
2022-10-09T08:36:15.291Z,7.65
2022-10-09T08:38:47.853Z,5.05
2022-10-09T08:41:27.485Z,7.75
2022-10-09T08:44:01.733Z,3.28
2022-10-09T08:46:43.392Z,4.40
2022-10-09T08:49:38.645Z,6.75
2022-10-09T08:52:24.536Z,4.38
2022-10-09T08:54:53.980Z,10.13
2022-10-09T08:57:22.201Z,5.28
2022-10-09T08:59:49.540Z,3.80
2022-10-09T09:02:35.738Z,7.07
2022-10-09T09:05:28.657Z,4.15
2022-10-09T09:08:20.883Z,4.07
2022-10-09T09:10:52.981Z,4.25
2022-10-09T09:13:38.517Z,4.20
2022-10-09T09:16:30.598Z,6.05
2022-10-09T09:19:00.802Z,6.00
2022-10-09T09:21:28.026Z,4.45
2022-10-09T09:23:57.555Z,7.38
2022-10-09T09:26:24.833Z,7.05
2022-10-09T09:28:58.345Z,5.55
2022-10-09T09:31:35.601Z,4.97
2022-10-09T09:34:10.969Z,6.80
2022-10-09T09:36:48.861Z,4.55
2022-10-09T09:42:09.610Z,5.85
2022-10-09T09:44:41.946Z,6.78
2022-10-09T09:47:32.839Z,4.27
2022-10-09T09:50:02.359Z,7.15
2022-10-09T09:52:37.021Z,8.32
2022-10-09T09:55:05.701Z,5.30
2022-10-09T09:57:38.412Z,10.45
2022-10-09T10:00:21.866Z,7.10
2022-10-09T10:02:50.300Z,7.50
2022-10-09T10:05:27.455Z,5.07
2022-10-09T10:07:57.551Z,8.75
2022-10-09T10:10:27.418Z,6.63
2022-10-09T10:12:59.347Z,4.72
2022-10-09T10:15:32.125Z,8.80
2022-10-09T10:18:14.879Z,7.15
2022-10-09T10:20:54.523Z,4.77
2022-10-09T10:23:36.883Z,3.95
2022-10-09T10:26:27.857Z,6.63
2022-10-09T10:29:05.524Z,4.65
2022-10-09T10:31:43.397Z,9.60
2022-10-09T10:34:26.836Z,4.22
2022-10-09T10:39:45.423Z,6.70
2022-10-09T10:42:23.549Z,3.15
2022-10-09T10:45:00.483Z,5.82
2022-10-09T10:47:32.551Z,7.40
2022-10-09T10:50:00.324Z,4.45
2022-10-09T10:52:43.861Z,4.32
2022-10-09T10:55:23.189Z,3.53
2022-10-09T10:58:01.845Z,3.40
2022-10-09T11:00:30.951Z,7.22
2022-10-09T11:03:14.837Z,5.22
2022-10-09T11:06:01.315Z,5.82
2022-10-09T11:08:28.561Z,5.85
2022-10-09T11:11:25.040Z,3.58
2022-10-09T11:14:20.643Z,4.13
2022-10-09T11:17:00.134Z,5.47
2022-10-09T11:19:49.597Z,5.57
2022-10-09T11:22:44.918Z,4.55
2022-10-09T11:25:50.762Z,4.97
2022-10-09T11:28:44.330Z,3.75
2022-10-09T11:33:51.009Z,3.05
2022-10-09T11:36:35.132Z,3.50
2022-10-09T11:39:05.580Z,3.03
2022-10-09T11:41:35.245Z,4.38
2022-10-09T11:44:24.409Z,5.13
2022-10-09T11:47:21.834Z,4.80
2022-10-09T11:49:58.265Z,3.35
2022-10-09T11:52:50.043Z,4.38
2022-10-09T11:55:23.989Z,3.22
2022-10-09T11:57:51.622Z,6.95
2022-10-09T12:00:31.315Z,3.67
2022-10-09T12:03:02.231Z,3.03
2022-10-09T12:05:42.958Z,4.10
2022-10-09T12:08:27.250Z,4.82
2022-10-09T12:11:07.831Z,3.88
2022-10-09T12:13:41.275Z,3.83
2022-10-09T12:16:29.572Z,4.45
2022-10-09T12:18:59.012Z,6.25
2022-10-09T12:21:31.349Z,3.58
2022-10-09T12:23:58.981Z,3.10
2022-10-09T12:26:26.721Z,3.85
2022-10-09T12:29:01.107Z,3.15
2022-10-09T12:31:33.894Z,2.78
2022-10-09T12:36:31.600Z,4.30
2022-10-09T12:39:18.379Z,4.40
2022-10-09T12:41:47.784Z,4.70
2022-10-09T12:44:39.718Z,5.13
2022-10-09T12:47:09.469Z,5.95
2022-10-09T12:49:36.819Z,5.80
2022-10-09T12:52:15.315Z,5.55
2022-10-09T12:54:44.574Z,4.32
2022-10-09T12:57:15.572Z,4.10
2022-10-09T12:59:44.207Z,3.90
2022-10-09T13:02:15.651Z,5.97
2022-10-09T13:04:54.834Z,4.75
2022-10-09T13:07:25.576Z,6.53
2022-10-09T13:09:59.693Z,4.78
2022-10-09T13:12:28.827Z,6.78
2022-10-09T13:14:58.980Z,4.47
2022-10-09T13:17:37.236Z,4.78
2022-10-09T13:20:25.595Z,5.72
2022-10-09T13:22:56.792Z,3.25
2022-10-09T13:25:27.223Z,6.30
2022-10-09T13:27:54.819Z,3.92
2022-10-09T13:30:22.045Z,4.18
2022-10-09T13:32:49.924Z,6.95
2022-10-09T13:35:17.562Z,10.32
2022-10-09T13:37:44.884Z,3.67
2022-10-09T13:40:15.925Z,4.25
2022-10-09T13:42:46.905Z,5.47
2022-10-09T13:45:14.232Z,4.63
2022-10-09T13:47:41.479Z,4.88
2022-10-09T13:50:10.535Z,4.85
2022-10-09T13:55:10.778Z,3.35
2022-10-09T13:57:38.344Z,3.80
2022-10-09T14:00:07.252Z,4.78
2022-10-09T14:02:43.536Z,4.07
2022-10-09T14:05:11.112Z,5.05
2022-10-09T14:07:38.430Z,4.00
2022-10-09T14:10:06.253Z,3.28
2022-10-09T14:12:33.532Z,4.78
2022-10-09T14:15:00.850Z,5.95
2022-10-09T14:17:28.128Z,3.10
2022-10-09T14:19:55.431Z,5.35
2022-10-09T14:22:22.790Z,3.85
2022-10-09T14:24:50.032Z,7.38
2022-10-09T14:27:17.295Z,4.10
2022-10-09T14:29:44.598Z,4.40
2022-10-09T14:32:11.880Z,4.70
2022-10-09T14:34:39.100Z,5.03
2022-10-09T14:37:18.392Z,4.30
2022-10-09T14:39:46.866Z,6.18
2022-10-09T14:42:14.189Z,6.40
2022-10-09T14:44:41.548Z,4.82
2022-10-09T14:47:08.905Z,4.32
2022-10-09T14:49:36.186Z,5.43
2022-10-09T14:52:03.453Z,7.70
2022-10-09T14:54:30.776Z,4.20
2022-10-09T14:56:58.028Z,5.22
2022-10-09T14:59:25.339Z,6.47
2022-10-09T15:01:52.626Z,4.60
2022-10-09T15:04:19.990Z,5.22
2022-10-09T15:06:47.263Z,7.57
2022-10-09T15:09:14.562Z,5.72
2022-10-09T15:11:41.836Z,5.32
2022-10-09T15:14:09.306Z,6.10
2022-10-09T15:16:36.604Z,4.60
2022-10-09T15:19:05.632Z,5.13
2022-10-09T15:21:34.844Z,6.97
2022-10-09T15:24:03.511Z,6.03
2022-10-09T15:26:33.265Z,6.38
2022-10-09T15:29:06.128Z,7.00
2022-10-09T15:31:38.886Z,4.10
2022-10-09T15:34:07.709Z,4.03
2022-10-09T15:36:38.143Z,5.72
2022-10-09T15:39:07.389Z,4.25
2022-10-09T15:41:37.317Z,4.65
2022-10-09T15:44:07.995Z,4.93
2022-10-09T15:46:35.685Z,5.05
2022-10-09T15:49:02.950Z,4.72
2022-10-09T15:51:33.079Z,4.93
2022-10-09T15:54:01.187Z,6.53
2022-10-09T15:56:29.366Z,4.95
2022-10-09T15:58:57.626Z,7.07
2022-10-09T16:01:25.746Z,5.07
2022-10-09T16:03:53.193Z,5.25
2022-10-09T16:06:23.545Z,9.60
2022-10-09T16:08:54.450Z,5.63
2022-10-09T16:11:25.114Z,5.60
2022-10-09T16:13:55.127Z,5.22
2022-10-09T16:16:25.287Z,4.93
2022-10-09T16:18:52.927Z,4.05
2022-10-09T16:21:23.502Z,5.25
2022-10-09T16:23:55.865Z,3.13
2022-10-09T16:26:26.595Z,4.40
2022-10-09T16:28:54.038Z,4.60
2022-10-09T16:31:28.230Z,5.60
2022-10-09T16:33:56.416Z,12.55
2022-10-09T16:36:24.432Z,49.75
2022-10-09T16:38:51.790Z,10.13
2022-10-09T16:41:20.999Z,4.85
2022-10-09T16:43:51.111Z,4.18
2022-10-09T16:46:27.935Z,5.82
2022-10-09T16:48:57.124Z,5.60
2022-10-09T16:51:27.564Z,8.70
2022-10-09T16:53:57.859Z,4.85
2022-10-09T16:56:27.796Z,4.95
2022-10-09T16:58:57.261Z,4.43
2022-10-09T17:01:25.698Z,6.68
2022-10-09T17:03:57.645Z,6.65
2022-10-09T17:06:26.225Z,5.10
2022-10-09T17:08:56.240Z,7.18
2022-10-09T17:11:25.546Z,4.38
2022-10-09T17:13:56.757Z,6.10
2022-10-09T17:16:26.956Z,4.22
2022-10-09T17:18:54.435Z,7.28
2022-10-09T17:21:21.911Z,6.75
2022-10-09T17:23:53.257Z,7.57
2022-10-09T17:26:21.328Z,13.90
2022-10-09T17:28:49.352Z,6.05
2022-10-09T17:31:20.697Z,7.85
2022-10-09T17:33:49.539Z,7.13
2022-10-09T17:36:19.319Z,6.78
2022-10-09T17:38:47.709Z,7.40
2022-10-09T17:41:17.394Z,4.93
2022-10-09T17:43:45.343Z,4.63
2022-10-09T17:46:14.742Z,6.90
2022-10-09T17:48:45.114Z,5.57
2022-10-09T17:51:25.569Z,6.82
2022-10-09T17:53:54.268Z,6.78
2022-10-09T17:56:21.613Z,6.00
2022-10-09T17:58:49.643Z,4.55
2022-10-09T18:01:17.857Z,4.72
2022-10-09T18:03:45.315Z,8.50
2022-10-09T18:06:16.291Z,7.28
2022-10-09T18:08:44.278Z,5.50
2022-10-09T18:11:15.213Z,5.28
2022-10-09T18:13:44.360Z,6.38
2022-10-09T18:16:15.012Z,5.97
2022-10-09T18:18:42.641Z,6.90
2022-10-09T18:21:12.683Z,5.15
2022-10-09T18:23:40.192Z,7.20
2022-10-09T18:26:09.277Z,4.72
2022-10-09T18:28:37.252Z,7.68
2022-10-09T18:31:08.786Z,4.80
2022-10-09T18:33:36.198Z,5.82
2022-10-09T18:36:19.547Z,7.15
2022-10-09T18:38:54.996Z,5.78
2022-10-09T18:41:23.137Z,7.15
2022-10-09T18:43:51.766Z,9.57
2022-10-09T18:46:23.453Z,10.07
2022-10-09T18:48:52.017Z,3.88
2022-10-09T18:51:21.661Z,6.15
2022-10-09T18:53:54.137Z,6.45
2022-10-09T18:56:22.363Z,8.27
2022-10-09T18:58:52.559Z,4.85
2022-10-09T19:01:20.176Z,4.72
2022-10-09T19:03:50.126Z,4.72
2022-10-09T19:06:18.792Z,5.30
2022-10-09T19:08:46.823Z,6.38
2022-10-09T19:11:14.837Z,7.28
2022-10-09T19:13:46.283Z,5.97
2022-10-09T19:16:13.832Z,5.85
2022-10-09T19:18:41.635Z,6.97
2022-10-09T19:21:13.392Z,5.47
2022-10-09T19:23:42.104Z,5.88
2022-10-09T19:26:12.996Z,5.40
2022-10-09T19:28:41.074Z,5.35
2022-10-09T19:31:10.467Z,4.45
2022-10-09T19:33:39.786Z,8.18
2022-10-09T19:36:09.905Z,6.95
2022-10-09T19:38:37.773Z,3.38
2022-10-09T19:41:14.516Z,5.97
2022-10-09T19:43:42.472Z,8.00
2022-10-09T19:46:17.846Z,5.30
2022-10-09T19:48:46.293Z,5.72
2022-10-09T19:51:17.327Z,7.13
2022-10-09T19:53:45.199Z,6.60
2022-10-09T19:56:21.759Z,5.72
2022-10-09T19:58:50.463Z,6.20
2022-10-09T20:01:20.376Z,7.53
2022-10-09T20:03:49.199Z,8.82
2022-10-09T20:06:16.970Z,5.55
2022-10-09T20:08:45.687Z,6.88
2022-10-09T20:11:14.373Z,5.40
2022-10-09T20:13:43.333Z,6.18
2022-10-09T20:16:13.431Z,5.80
2022-10-09T20:18:43.027Z,5.63
2022-10-09T20:21:13.225Z,7.30
2022-10-09T20:23:40.697Z,6.03
2022-10-09T20:26:17.975Z,8.60
2022-10-09T20:28:46.759Z,6.47
2022-10-09T20:31:18.557Z,6.90
2022-10-09T20:33:47.421Z,5.75
2022-10-09T20:36:35.495Z,9.63
2022-10-09T20:39:12.072Z,6.18
2022-10-09T20:41:41.679Z,9.65
2022-10-09T20:44:10.616Z,6.05
2022-10-09T20:46:39.066Z,5.03
2022-10-09T20:49:10.100Z,6.32
2022-10-09T20:51:39.077Z,8.90
2022-10-09T20:54:07.766Z,8.07
2022-10-09T20:56:35.336Z,4.05
2022-10-09T20:59:03.421Z,4.30
2022-10-09T21:01:31.085Z,3.97
2022-10-09T21:03:59.328Z,4.47
2022-10-09T21:06:26.784Z,6.13
2022-10-09T21:08:54.125Z,4.80
2022-10-09T21:11:22.062Z,6.15
2022-10-09T21:13:49.910Z,3.88
2022-10-09T21:16:20.232Z,6.60
2022-10-09T21:18:47.747Z,5.05
2022-10-09T21:21:17.621Z,6.50
2022-10-09T21:23:45.630Z,4.57
2022-10-09T21:26:18.005Z,4.93
2022-10-09T21:28:45.960Z,3.17
2022-10-09T21:31:19.515Z,7.25
2022-10-09T21:33:47.327Z,4.35
2022-10-09T21:36:51.166Z,3.83
2022-10-09T21:39:23.420Z,7.45
2022-10-09T21:41:50.828Z,4.40
2022-10-09T21:44:18.135Z,4.55
2022-10-09T21:46:45.397Z,6.05
2022-10-09T21:49:24.889Z,3.75
2022-10-09T21:51:52.269Z,6.60
2022-10-09T21:54:20.600Z,5.03
2022-10-09T21:56:48.598Z,7.85
2022-10-09T21:59:15.969Z,6.85
2022-10-09T22:01:43.345Z,4.75
2022-10-09T22:04:10.741Z,6.43
2022-10-09T22:06:38.004Z,10.73
2022-10-09T22:09:05.272Z,5.97
2022-10-09T22:11:32.614Z,8.23
2022-10-09T22:14:00.045Z,5.40
2022-10-09T22:16:27.383Z,7.88
2022-10-09T22:18:54.685Z,3.95
2022-10-09T22:21:22.942Z,4.88
2022-10-09T22:23:50.988Z,7.03
2022-10-09T22:26:20.400Z,7.45
2022-10-09T22:28:48.336Z,8.10
2022-10-09T22:31:21.617Z,4.72
2022-10-09T22:36:26.105Z,3.13
2022-10-09T22:38:55.496Z,5.15
2022-10-09T22:41:23.877Z,4.75
2022-10-09T22:43:53.727Z,4.88
2022-10-09T22:46:36.484Z,4.00
2022-10-09T22:49:05.815Z,8.73
2022-10-09T22:51:33.175Z,6.15
2022-10-09T22:54:00.810Z,4.75
2022-10-09T22:56:34.036Z,11.18
2022-10-09T23:01:35.951Z,5.25
2022-10-09T23:04:05.817Z,6.30
2022-10-09T23:06:33.296Z,5.07
2022-10-09T23:09:00.945Z,4.03
2022-10-09T23:11:28.209Z,4.90
2022-10-09T23:13:57.350Z,4.95
2022-10-09T23:16:25.316Z,7.55
2022-10-09T23:18:52.830Z,4.32
2022-10-09T23:21:22.314Z,5.35
2022-10-09T23:23:50.605Z,6.35
2022-10-09T23:26:24.276Z,5.93
2022-10-09T23:28:54.442Z,5.53
2022-10-09T23:31:22.991Z,2.88
2022-10-09T23:33:50.595Z,4.43
2022-10-09T23:36:20.214Z,4.40
2022-10-09T23:38:48.212Z,6.32
2022-10-09T23:41:18.726Z,3.95
2022-10-09T23:43:46.859Z,4.00
2022-10-09T23:46:26.489Z,5.25
2022-10-09T23:48:55.262Z,5.95
2022-10-09T23:51:24.876Z,5.13
2022-10-09T23:53:52.558Z,3.58
2022-10-09T23:56:24.392Z,3.80
2022-10-09T23:58:53.030Z,3.40
